Details From ENGM - Oslo Gardermoen
To ENKB - Kvernberget
Flight Number -
Tags Generated
Created
Modified
Stats Distance 200 nm / 370 km
Max Altitude 0 ft / 0 m
Waypoints 2
Social Downloads 4
Likes 0
Share VATSIM

Download

Looking for another format? Having issues loading an existing format? Contact us
Advertisement - Login to hide

Notes

Generated

Route

ENGM ENKB

ID Type Via Altitude Latitude Longitude Leg Dist Tot Dist Heading (true) Name
O ENGM APT - 0 ft / 0 m 60.17576˚ 11.10778˚ - 0 nm - -
O ENKB APT - 0 ft / 0 m 63.10917˚ 7.80675˚ 199 nm 199 nm 333° / 330° -

Altitude Profile

Advertisement - Login to hide

Weather


0- 5 10 15 20 25 30 35+ Temperature / ° C

Clouds and Precipitation
Forecast for 2018-05-21 12:00 UTC. Updated 4 hours ago

Ground ~20,000 ft ~40,000 ft Winds

ENGM

Details ICAO ENGM (OSL)
Name Oslo Gardermoen
Region Norway
Timezone Europe/Oslo (UTC+2.0)
Stats Elevation 681 ft / 208 m (AMSL)
Location 60.194507° 11.098998°
Runways 2
Magnetic Variation 3.459° E

METAR

ENGM 211450Z 19010KT CAVOK 21/07 Q1024 NOSIG

Decode

TAF

TAF ENGM 211100Z 2112/2212 20010KT CAVOK BECMG 2118/2120 VRB05KT

Decode

Departure Runways

ID Width Length Bearing (true) Bearing (mag) Surface Threshold Offset Overrun Length
01L 148 ft / 45 m 12,144 ft / 3,702 m 15.89° 12.43° Concrete 0 ft / 0 m 499 ft / 152 m
01R 148 ft / 45 m 10,014 ft / 3,052 m 15.89° 12.43° Concrete 0 ft / 0 m 499 ft / 152 m
19L 148 ft / 45 m 10,014 ft / 3,052 m 195.91° 192.45° Concrete 0 ft / 0 m 466 ft / 142 m
19R 148 ft / 45 m 12,144 ft / 3,702 m 195.91° 192.45° Concrete 0 ft / 0 m 482 ft / 147 m

ENKB

Details ICAO ENKB (KSU)
Name KVERNBERGET
Region Norway
Timezone Europe/Oslo (UTC+2.0)
Stats Elevation 204 ft / 62 m (AMSL)
Location 63.111872° 7.824532°
Runways 1
Magnetic Variation 2.068° E

METAR

ENKB 211450Z 01008KT 330V040 CAVOK 15/07 Q1022 RMK WIND 745FT 36007KT

Decode

TAF

Not found

Destination Runways

ID Width Length Bearing (true) Bearing (mag) Surface Threshold Offset Overrun Length
07 148 ft / 45 m 6,192 ft / 1,887 m 71.39° 69.32° Asphalt 197 ft / 60 m 0 ft / 0 m
25 148 ft / 45 m 6,192 ft / 1,887 m 251.42° 249.35° Asphalt 263 ft / 80 m 0 ft / 0 m

Approach Navaids

Runway Type Ident Frequency Range Bearing (true) Bearing (mag) Slope Elevation
07 Localiser KB 110.10 MHz 18 nm / 33 km 71.60° 69.54° - 204 ft / 62 m (AMSL)
07 Glidescope KB 110.10 MHz 10 nm / 19 km 71.41° 69.34° 3.00° 204 ft / 62 m (AMSL)

Popular Alternatives